»·PEaware :: DAL494 KJFK-KEWR

DAL494 :: KJFK-KEWR

FLIGHT INFORMATION

Flight Status: Arrived
Operator:
Delta Air Lines
More flights by this operator :: More flights under this callsign
Pilot: Tamer M. (30101)
Aircraft: BOEING 737-700
(B737)
More flights by this aircraft type
Origin: KJFK Kennedy Intl
United States
Destination: KEWR Newark Intl
United States
More flights between these airports :: More routes between these airports
Route: JFK5 V16 DIXIE V276 RBV V249 SBJ
File this flight plan on PilotEdge
Remarks:
Altitude:
(Current/Filed)
6,000ft
Speed:
(Current/Filed)
274kts
Departed: 03-Dec-22 06:44 AM
Arrived: 03-Dec-22 07:41 AM
Distance/Time
Traveled:
18nm/0:57
Distance/Time
To Go:
Arrived

Flight Plot

Page will automatically refresh every two minutes.

Flight plan parsing failed; only flown route is shown


Map Options




Map Legend


Flown Route
Filed Route
Departure Airport
Arrival Airport
Navaid (VOR, NDB)
Fix

Horizontal Profiles

Position Reports

Time Latitude Longitude Heading Altitude Ground
Speed
03-Dec-22 06:19 40.641770 -73.793203 107 19ft 0kts
03-Dec-22 06:20 40.641770 -73.793203 107 19ft 0kts
03-Dec-22 06:21 40.641770 -73.793203 107 19ft 0kts
03-Dec-22 06:22 40.641770 -73.793203 107 19ft 0kts
03-Dec-22 06:23 40.641770 -73.793203 107 19ft 0kts
03-Dec-22 06:24 40.641770 -73.793203 107 19ft 0kts
03-Dec-22 06:25 40.641770 -73.793203 107 19ft 0kts
03-Dec-22 06:26 40.641770 -73.793203 107 19ft 0kts
03-Dec-22 06:27 40.641770 -73.793203 107 19ft 0kts
03-Dec-22 06:28 40.641770 -73.793203 107 19ft 0kts
03-Dec-22 06:29 40.641770 -73.793203 107 19ft 0kts
03-Dec-22 06:30 40.641770 -73.793203 107 19ft 0kts
03-Dec-22 06:31 40.641880 -73.793657 109 23ft 0kts
03-Dec-22 06:32 40.641880 -73.793657 109 23ft 0kts
03-Dec-22 06:33 40.641880 -73.793657 109 23ft 0kts
03-Dec-22 06:34 40.641880 -73.793657 109 23ft 0kts
03-Dec-22 06:35 40.642061 -73.794319 265 19ft 7kts
03-Dec-22 06:36 40.641575 -73.798254 287 21ft 10kts
03-Dec-22 06:37 40.643121 -73.801256 300 19ft 10kts
03-Dec-22 06:38 40.645462 -73.806423 300 19ft 22kts
03-Dec-22 06:39 40.648863 -73.813935 297 19ft 9kts
03-Dec-22 06:40 40.648806 -73.814689 231 19ft 0kts
03-Dec-22 06:41 40.647636 -73.815103 125 22ft 0kts
03-Dec-22 06:42 40.647636 -73.815103 125 22ft 0kts
03-Dec-22 06:43 40.640752 -73.799957 121 99ft 160kts
03-Dec-22 06:44 40.609159 -73.754432 146 2907ft 217kts
03-Dec-22 06:45 40.548214 -73.708944 178 4940ft 267kts
03-Dec-22 06:46 40.488564 -73.762931 221 5012ft 271kts
03-Dec-22 06:47 40.430117 -73.825907 218 5004ft 270kts
03-Dec-22 06:48 40.370534 -73.887619 218 5995ft 274kts
03-Dec-22 06:49 40.315518 -73.953921 244 6020ft 268kts
03-Dec-22 06:50 40.285994 -74.043915 247 6007ft 270kts
03-Dec-22 06:51 40.256842 -74.134906 247 6005ft 271kts
03-Dec-22 06:52 40.228616 -74.223208 247 5106ft 243kts
03-Dec-22 06:53 40.217540 -74.300203 308 4065ft 210kts
03-Dec-22 06:54 40.274217 -74.315644 357 3632ft 222kts
03-Dec-22 06:55 40.336343 -74.318407 357 3024ft 224kts
03-Dec-22 06:56 40.397504 -74.321104 357 3008ft 217kts
03-Dec-22 06:57 40.456753 -74.313721 23 3021ft 219kts
03-Dec-22 06:58 40.481013 -74.253500 115 3015ft 219kts
03-Dec-22 06:59 40.452708 -74.180518 117 2999ft 220kts
03-Dec-22 07:00 40.405012 -74.175043 243 3017ft 213kts
03-Dec-22 07:01 40.426192 -74.244506 307 3000ft 220kts
03-Dec-22 07:02 40.479766 -74.267913 357 3014ft 205kts
03-Dec-22 07:03 40.535676 -74.263698 20 2979ft 197kts
03-Dec-22 07:04 40.582874 -74.234505 25 2085ft 172kts
03-Dec-22 07:05 40.618503 -74.211836 25 1359ft 136kts
03-Dec-22 07:06 40.652297 -74.190335 25 652ft 134kts
03-Dec-22 07:07 40.686264 -74.168823 24 688ft 139kts
03-Dec-22 07:08 40.723821 -74.128441 47 2437ft 208kts
03-Dec-22 07:09 40.764172 -74.070039 45 3002ft 222kts
03-Dec-22 07:10 40.810819 -74.087227 288 3025ft 205kts
03-Dec-22 07:11 40.808800 -74.159031 242 3009ft 206kts
03-Dec-22 07:12 40.770707 -74.215906 227 3010ft 209kts
03-Dec-22 07:13 40.727452 -74.266119 207 3013ft 209kts
03-Dec-22 07:14 40.675663 -74.300971 207 3008ft 209kts
03-Dec-22 07:15 40.623682 -74.335817 207 3078ft 209kts
03-Dec-22 07:16 40.570642 -74.371409 207 3999ft 213kts
03-Dec-22 07:17 40.517937 -74.403746 182 3987ft 209kts
03-Dec-22 07:18 40.466779 -74.368673 147 4025ft 212kts
03-Dec-22 07:19 40.473041 -74.309049 34 4012ft 211kts
03-Dec-22 07:20 40.525120 -74.271232 25 3292ft 208kts
03-Dec-22 07:21 40.572354 -74.241202 25 2326ft 181kts
03-Dec-22 07:22 40.616213 -74.213290 25 1384ft 162kts
03-Dec-22 07:23 40.651679 -74.190727 25 659ft 133kts
03-Dec-22 07:24 40.685708 -74.169085 25 581ft 151kts
03-Dec-22 07:25 40.722092 -74.130127 47 2555ft 201kts
03-Dec-22 07:26 40.770312 -74.101891 339 3005ft 213kts
03-Dec-22 07:27 40.806600 -74.152255 253 3000ft 210kts
03-Dec-22 07:28 40.761919 -74.217213 218 3015ft 261kts
03-Dec-22 07:29 40.704324 -74.274838 217 2998ft 259kts
03-Dec-22 07:30 40.646992 -74.331930 217 3004ft 258kts
03-Dec-22 07:31 40.589802 -74.388904 217 3004ft 258kts
03-Dec-22 07:32 40.532431 -74.446106 217 3005ft 260kts
03-Dec-22 07:33 40.471417 -74.452866 124 2985ft 220kts
03-Dec-22 07:34 40.473191 -74.377742 79 3015ft 211kts
03-Dec-22 07:35 40.500952 -74.310380 57 3013ft 212kts
03-Dec-22 07:36 40.542292 -74.260168 25 2925ft 194kts
03-Dec-22 07:37 40.589533 -74.230271 25 1959ft 187kts
03-Dec-22 07:38 40.634180 -74.201857 25 1015ft 158kts
03-Dec-22 07:39 40.667638 -74.180598 25 362ft 125kts
03-Dec-22 07:40 40.693851 -74.163956 25 25ft 36kts
03-Dec-22 07:41 40.695799 -74.164404 297 19ft 4kts
03-Dec-22 07:42 40.696794 -74.167195 285 18ft 0kts
03-Dec-22 07:43 40.696794 -74.167195 285 18ft 0kts
03-Dec-22 07:44 40.695569 -74.169410 204 18ft 12kts
03-Dec-22 07:45 40.690278 -74.172789 206 16ft 26kts
03-Dec-22 07:46 40.688347 -74.176319 235 23ft 0kts
03-Dec-22 07:47 40.688347 -74.176319 235 23ft 0kts
03-Dec-22 07:48 40.688347 -74.176319 235 23ft 0kts
03-Dec-22 07:49 40.688347 -74.176319 235 23ft 0kts
03-Dec-22 07:50 40.688347 -74.176319 235 23ft 0kts
03-Dec-22 07:51 40.688347 -74.176319 235 23ft 0kts

Navigation Log

Ident Type
Flight plan parsing failed, navigation log unavailable